Time;durP1;ratioP1;P1;durP2;ratioP2;P2;SDS_P1;SDS_P2;PMS_P1;PMS_P2;Temp;Humidity;BMP_temperature;BMP_pressure;BME280_temperature;BME280_humidity;BME280_pressure;Samples;Min_cycle;Max_cycle;Signal;HPM_P1;HPM_P2
2023/09/12 00:00:55;;;;;;;25.63;12.43;;;19.40;99.90;;;;;;4996442;28;20396;-78
2023/09/12 00:03:22;;;;;;;25.30;12.38;;;19.40;99.90;;;;;;5006420;28;20130;-78
2023/09/12 00:05:56;;;;;;;22.90;12.60;;;19.40;99.90;;;;;;4985876;28;20087;-79
2023/09/12 00:08:21;;;;;;;25.20;12.50;;;19.30;99.90;;;;;;4986376;28;20092;-79
2023/09/12 00:10:47;;;;;;;23.70;12.48;;;19.30;99.90;;;;;;5005378;28;20042;-79
2023/09/12 00:13:12;;;;;;;24.10;12.82;;;19.40;99.90;;;;;;5004820;28;20565;-78
2023/09/12 00:15:38;;;;;;;24.33;12.77;;;19.30;99.90;;;;;;5005330;28;20053;-78
2023/09/12 00:18:04;;;;;;;28.58;14.52;;;19.30;99.90;;;;;;5004763;28;20053;-79
2023/09/12 00:20:30;;;;;;;28.17;13.80;;;19.30;99.90;;;;;;4987161;28;20573;-79
2023/09/12 00:22:56;;;;;;;28.25;12.40;;;19.30;99.90;;;;;;5005299;28;20045;-79
2023/09/12 00:25:21;;;;;;;25.17;12.85;;;19.30;99.90;;;;;;5004667;28;20133;-79
2023/09/12 00:27:47;;;;;;;24.33;13.27;;;19.20;99.90;;;;;;5004912;28;20038;-79
2023/09/12 00:30:16;;;;;;;24.45;13.15;;;19.30;99.90;;;;;;5004473;28;20099;-79
2023/09/12 00:32:41;;;;;;;24.63;13.27;;;19.30;99.90;;;;;;5004266;28;20038;-79
2023/09/12 00:35:07;;;;;;;27.88;13.30;;;19.20;99.90;;;;;;5005365;28;20504;-79
2023/09/12 00:37:33;;;;;;;23.35;12.82;;;19.20;99.90;;;;;;5004578;28;20048;-79
2023/09/12 00:39:59;;;;;;;24.92;13.27;;;19.20;99.90;;;;;;5005023;28;20060;-80
2023/09/12 00:42:27;;;;;;;23.83;13.10;;;19.20;99.90;;;;;;5004541;28;20041;-79
2023/09/12 00:44:53;;;;;;;23.00;11.90;;;19.20;99.90;;;;;;5004129;28;20538;-79
2023/09/12 00:47:20;;;;;;;24.35;14.40;;;19.10;99.90;;;;;;5003582;28;20045;-79
2023/09/12 00:49:48;;;;;;;25.48;13.23;;;19.10;99.90;;;;;;5005031;28;20068;-79
2023/09/12 00:52:14;;;;;;;22.38;12.70;;;19.10;99.90;;;;;;5003979;28;20061;-78
2023/09/12 00:54:40;;;;;;;27.20;15.10;;;19.10;99.90;;;;;;5004648;28;20049;-79
2023/09/12 00:57:07;;;;;;;24.30;13.10;;;19.10;99.90;;;;;;4971307;28;20049;-79
2023/09/12 00:59:32;;;;;;;26.75;14.13;;;19.10;99.90;;;;;;5003911;28;20141;-79
2023/09/12 01:01:59;;;;;;;30.02;14.93;;;19.10;99.90;;;;;;5003705;28;20524;-80
2023/09/12 01:04:25;;;;;;;25.17;15.05;;;19.10;99.90;;;;;;4970473;28;20042;-79
2023/09/12 01:06:52;;;;;;;26.67;13.00;;;19.10;99.90;;;;;;5004024;28;20104;-79
2023/09/12 01:09:17;;;;;;;26.67;14.02;;;19.10;99.90;;;;;;4986668;28;20046;-79
2023/09/12 01:11:43;;;;;;;27.02;13.50;;;19.00;99.90;;;;;;5004167;28;20048;-79
2023/09/12 01:14:09;;;;;;;24.80;13.20;;;19.10;99.90;;;;;;5003189;28;20058;-80
2023/09/12 01:16:35;;;;;;;22.17;12.82;;;19.10;99.90;;;;;;5012851;28;20061;-79
2023/09/12 01:19:01;;;;;;;29.15;13.90;;;19.00;99.90;;;;;;4984122;28;20544;-79
2023/09/12 01:22:09;;;;;;;24.20;13.00;;;19.00;99.90;;;;;;5001574;28;20620;-79
2023/09/12 01:25:31;;;;;;;27.23;12.73;;;19.00;99.90;;;;;;4988716;28;20046;-79
2023/09/12 01:28:02;;;;;;;26.50;13.25;;;18.90;99.90;;;;;;4938121;29;20047;-79
2023/09/12 01:30:31;;;;;;;21.27;12.88;;;18.90;99.90;;;;;;4942628;29;20039;-79
2023/09/12 01:32:57;;;;;;;28.00;13.27;;;18.90;99.90;;;;;;4980312;28;20058;-79
2023/09/12 01:35:22;;;;;;;27.50;13.75;;;18.90;99.90;;;;;;4985531;28;20160;-79
2023/09/12 01:37:48;;;;;;;24.85;12.80;;;18.90;99.90;;;;;;4986122;28;20046;-79
2023/09/12 01:40:15;;;;;;;29.70;13.38;;;18.80;99.90;;;;;;5003161;28;20342;-79
2023/09/12 01:42:45;;;;;;;27.27;13.75;;;18.80;99.90;;;;;;4985735;28;20092;-79
2023/09/12 01:45:15;;;;;;;28.65;14.15;;;18.80;99.90;;;;;;5003314;28;20045;-79
2023/09/12 01:47:41;;;;;;;29.15;14.48;;;18.70;99.90;;;;;;5002497;28;20042;-79
2023/09/12 01:50:12;;;;;;;24.58;14.02;;;18.70;99.90;;;;;;4985836;28;20038;-79
2023/09/12 01:52:38;;;;;;;27.33;13.25;;;18.70;99.90;;;;;;4970678;28;20049;-79
2023/09/12 01:55:06;;;;;;;27.50;13.82;;;18.70;99.90;;;;;;4986571;28;20042;-79
2023/09/12 01:57:32;;;;;;;28.23;14.38;;;18.60;99.90;;;;;;5001658;28;20038;-79
2023/09/12 01:59:58;;;;;;;25.63;14.32;;;18.60;99.90;;;;;;5003330;28;20612;-79
2023/09/12 02:02:24;;;;;;;27.33;14.63;;;18.60;99.90;;;;;;4984358;28;20042;-79
2023/09/12 02:04:59;;;;;;;26.15;14.77;;;18.60;99.90;;;;;;4983533;28;20038;-79
2023/09/12 02:07:26;;;;;;;24.75;14.15;;;18.60;99.90;;;;;;4997412;28;20175;-79
2023/09/12 02:09:52;;;;;;;25.60;13.38;;;18.60;99.90;;;;;;5003097;28;20730;-79
2023/09/12 02:12:18;;;;;;;28.40;14.10;;;18.50;99.90;;;;;;5002402;28;20056;-79
2023/09/12 02:14:43;;;;;;;27.77;14.43;;;18.50;99.90;;;;;;5002766;28;20062;-79
2023/09/12 02:17:09;;;;;;;26.58;13.57;;;18.50;99.90;;;;;;5001985;28;20108;-80
2023/09/12 02:19:34;;;;;;;22.30;13.05;;;18.50;99.90;;;;;;5003271;28;20085;-79
2023/09/12 02:22:00;;;;;;;26.55;13.25;;;18.40;99.90;;;;;;5003215;28;20042;-79
2023/09/12 02:24:25;;;;;;;23.58;13.15;;;18.40;99.90;;;;;;5002842;28;20485;-79
2023/09/12 02:26:51;;;;;;;23.65;12.50;;;18.40;99.90;;;;;;5002648;28;20126;-79
2023/09/12 02:29:17;;;;;;;24.10;11.85;;;18.30;99.90;;;;;;4985415;28;20401;-79
2023/09/12 02:31:43;;;;;;;26.95;14.68;;;18.40;99.90;;;;;;5003195;28;20053;-79
2023/09/12 02:34:08;;;;;;;27.23;13.63;;;18.30;99.90;;;;;;4996775;28;20576;-80
2023/09/12 02:36:34;;;;;;;22.85;12.73;;;18.40;99.90;;;;;;5006951;28;20121;-79
2023/09/12 02:38:59;;;;;;;26.02;13.40;;;18.30;99.90;;;;;;4989156;28;20065;-79
2023/09/12 02:41:26;;;;;;;26.80;12.05;;;18.30;99.90;;;;;;5006605;28;20049;-79
2023/09/12 02:43:51;;;;;;;24.75;11.25;;;18.20;99.90;;;;;;5006580;28;20034;-79
2023/09/12 02:46:17;;;;;;;24.67;10.65;;;18.20;99.90;;;;;;5005698;28;20488;-78
2023/09/12 02:48:42;;;;;;;16.50;9.65;;;18.20;99.90;;;;;;4989008;28;20077;-78
2023/09/12 02:51:08;;;;;;;18.92;8.40;;;18.20;99.90;;;;;;5006804;28;20081;-78
2023/09/12 02:53:33;;;;;;;24.25;9.00;;;18.10;99.90;;;;;;5007111;28;20492;-78
2023/09/12 02:55:59;;;;;;;18.27;8.88;;;18.10;99.90;;;;;;5006421;28;20046;-78
2023/09/12 02:58:25;;;;;;;19.50;9.10;;;18.10;99.90;;;;;;4988548;28;20041;-79
2023/09/12 03:00:54;;;;;;;13.40;8.32;;;18.00;99.90;;;;;;4971713;28;20128;-80
2023/09/12 03:03:20;;;;;;;28.10;9.55;;;18.00;99.90;;;;;;4972235;28;20419;-79
2023/09/12 03:05:45;;;;;;;22.35;7.88;;;18.00;99.90;;;;;;4988442;28;20045;-79
2023/09/12 03:08:11;;;;;;;21.83;8.90;;;17.90;99.90;;;;;;5006664;28;20481;-79
2023/09/12 03:10:37;;;;;;;15.93;9.23;;;17.90;99.90;;;;;;5006699;28;20057;-79
2023/09/12 03:13:02;;;;;;;18.17;9.10;;;17.90;99.90;;;;;;5006705;28;20068;-78
2023/09/12 03:15:28;;;;;;;17.67;8.13;;;17.90;99.90;;;;;;4988169;28;20058;-78
2023/09/12 03:17:54;;;;;;;27.70;9.77;;;17.90;99.90;;;;;;5005568;28;20133;-79
2023/09/12 03:20:19;;;;;;;29.70;10.05;;;17.80;99.90;;;;;;5005978;28;20038;-79
2023/09/12 03:22:46;;;;;;;15.07;8.05;;;17.80;99.90;;;;;;4988406;28;20503;-79
2023/09/12 03:25:11;;;;;;;17.15;8.93;;;17.80;99.90;;;;;;5005839;28;20061;-79
2023/09/12 03:27:37;;;;;;;15.68;9.48;;;17.70;99.90;;;;;;4989162;28;20078;-79
2023/09/12 03:30:04;;;;;;;20.10;10.20;;;17.70;99.90;;;;;;5005805;28;20053;-79
2023/09/12 03:32:30;;;;;;;15.68;10.30;;;17.70;99.90;;;;;;5004774;28;20496;-78
2023/09/12 03:34:55;;;;;;;17.25;9.60;;;17.70;99.90;;;;;;5006063;28;20045;-79
2023/09/12 03:37:21;;;;;;;18.08;8.18;;;17.70;99.90;;;;;;4988094;28;20454;-79
2023/09/12 03:39:47;;;;;;;24.30;10.00;;;17.70;99.90;;;;;;5005768;28;20057;-78
2023/09/12 03:42:13;;;;;;;17.15;9.65;;;17.70;99.90;;;;;;4987221;28;20048;-78
2023/09/12 03:44:38;;;;;;;16.23;10.25;;;17.70;99.90;;;;;;4988523;28;20042;-80
2023/09/12 03:47:04;;;;;;;18.45;9.32;;;17.70;99.90;;;;;;5004987;28;20042;-79
2023/09/12 03:49:29;;;;;;;16.02;9.98;;;17.60;99.90;;;;;;5005302;28;20120;-79
2023/09/12 03:51:55;;;;;;;18.52;9.60;;;17.60;99.90;;;;;;5004443;28;20083;-79
2023/09/12 03:54:21;;;;;;;23.27;9.93;;;17.60;99.90;;;;;;4987682;28;20052;-79
2023/09/12 03:56:46;;;;;;;30.75;10.63;;;17.60;99.90;;;;;;5005742;28;20603;-79
2023/09/12 03:59:12;;;;;;;31.15;9.95;;;17.60;99.90;;;;;;4971485;28;20042;-78
2023/09/12 04:01:37;;;;;;;24.27;10.40;;;17.60;99.90;;;;;;5004751;28;20046;-78
2023/09/12 04:04:03;;;;;;;23.27;9.80;;;17.60;99.90;;;;;;5005614;28;20491;-78
2023/09/12 04:06:29;;;;;;;23.38;8.20;;;17.60;99.90;;;;;;4987282;28;20046;-78
2023/09/12 04:08:54;;;;;;;19.90;9.48;;;17.60;99.90;;;;;;5005471;28;20046;-78
2023/09/12 04:11:20;;;;;;;22.73;8.30;;;17.60;99.90;;;;;;5003989;28;20045;-79
2023/09/12 04:13:46;;;;;;;21.45;9.52;;;17.50;99.90;;;;;;5005262;28;20048;-79
2023/09/12 04:16:11;;;;;;;26.73;7.95;;;17.60;99.90;;;;;;4986438;28;20057;-79
2023/09/12 04:18:38;;;;;;;29.38;8.07;;;17.60;99.90;;;;;;5005070;28;20053;-79
2023/09/12 04:21:04;;;;;;;18.80;8.65;;;17.50;99.90;;;;;;4987743;28;20077;-79
2023/09/12 04:23:29;;;;;;;17.80;9.10;;;17.50;99.90;;;;;;4971430;28;20048;-78
2023/09/12 04:25:55;;;;;;;13.90;7.63;;;17.50;99.90;;;;;;5004766;28;20045;-78
2023/09/12 04:28:21;;;;;;;17.15;8.27;;;17.50;99.90;;;;;;4971351;28;20052;-78
2023/09/12 04:30:46;;;;;;;16.42;9.13;;;17.50;99.90;;;;;;4986360;28;20053;-78
2023/09/12 04:33:12;;;;;;;25.35;9.45;;;17.50;99.90;;;;;;4986736;28;20033;-78
2023/09/12 04:35:38;;;;;;;23.17;10.63;;;17.40;99.90;;;;;;4986916;28;20556;-78
2023/09/12 04:38:04;;;;;;;24.80;10.43;;;17.40;99.90;;;;;;5004620;28;20124;-79
2023/09/12 04:40:29;;;;;;;25.35;11.63;;;17.40;99.90;;;;;;5004069;28;20064;-79
2023/09/12 04:42:55;;;;;;;29.98;10.90;;;17.50;99.90;;;;;;5004388;28;20042;-79
2023/09/12 04:45:21;;;;;;;27.67;11.10;;;17.50;99.90;;;;;;4969667;28;20571;-80
2023/09/12 04:47:46;;;;;;;45.47;12.90;;;17.50;99.90;;;;;;5004397;28;20046;-79
2023/09/12 04:50:12;;;;;;;24.10;11.68;;;17.40;99.90;;;;;;5002539;28;20038;-79
2023/09/12 04:52:38;;;;;;;22.05;11.48;;;17.40;99.90;;;;;;5004358;28;20056;-79
2023/09/12 04:55:04;;;;;;;29.23;12.63;;;17.50;99.90;;;;;;4970468;28;20141;-79
2023/09/12 04:57:30;;;;;;;26.90;12.95;;;17.40;99.90;;;;;;5003761;28;20034;-78
2023/09/12 04:59:58;;;;;;;35.92;14.32;;;17.40;99.90;;;;;;5002499;28;20030;-78
2023/09/12 05:02:25;;;;;;;27.08;13.95;;;17.40;99.90;;;;;;4968991;28;20132;-78
2023/09/12 05:04:50;;;;;;;37.42;15.13;;;17.40;99.90;;;;;;5003444;28;20041;-78
2023/09/12 05:07:16;;;;;;;31.60;14.13;;;17.50;99.90;;;;;;4985477;28;20080;-79
2023/09/12 05:09:42;;;;;;;28.67;13.38;;;17.40;99.90;;;;;;5004037;28;20049;-78
2023/09/12 05:12:08;;;;;;;31.95;13.40;;;17.40;99.90;;;;;;5003450;28;20488;-78
2023/09/12 05:14:34;;;;;;;34.47;13.32;;;17.50;99.90;;;;;;5002027;28;20061;-78
2023/09/12 05:17:01;;;;;;;34.53;15.45;;;17.50;99.90;;;;;;5003946;28;20050;-78
2023/09/12 05:19:27;;;;;;;26.02;13.32;;;17.40;99.90;;;;;;5004434;28;20046;-78
2023/09/12 05:21:52;;;;;;;35.25;13.90;;;17.40;99.90;;;;;;5003419;28;20080;-78
2023/09/12 05:24:18;;;;;;;34.65;14.63;;;17.50;99.90;;;;;;5007615;28;20034;-78
2023/09/12 05:26:43;;;;;;;30.60;14.85;;;17.40;99.90;;;;;;5000171;28;20503;-78
2023/09/12 05:29:09;;;;;;;35.53;13.23;;;17.50;99.90;;;;;;5001176;28;20069;-77
2023/09/12 05:31:35;;;;;;;37.75;14.32;;;17.50;99.90;;;;;;5000032;28;20092;-78
2023/09/12 05:34:01;;;;;;;30.98;14.25;;;17.50;99.90;;;;;;4966477;28;20057;-76
2023/09/12 05:36:26;;;;;;;38.45;15.18;;;17.50;99.90;;;;;;4996366;28;20049;-78
2023/09/12 05:38:52;;;;;;;28.80;13.38;;;17.50;99.90;;;;;;5002816;28;20329;-78
2023/09/12 05:41:17;;;;;;;28.73;14.13;;;17.50;99.90;;;;;;4984795;28;20484;-76
2023/09/12 05:43:43;;;;;;;31.08;14.25;;;17.50;99.90;;;;;;4998716;28;20045;-78
2023/09/12 05:46:09;;;;;;;29.65;13.77;;;17.50;99.90;;;;;;4996953;28;20454;-79
2023/09/12 05:48:35;;;;;;;31.70;14.55;;;17.50;99.90;;;;;;4996257;28;20084;-80
2023/09/12 05:51:00;;;;;;;30.35;15.25;;;17.50;99.90;;;;;;5002732;28;20100;-79
2023/09/12 05:53:26;;;;;;;31.08;15.23;;;17.50;99.90;;;;;;4965786;28;20092;-77
2023/09/12 05:55:51;;;;;;;35.47;15.07;;;17.60;99.90;;;;;;4996350;28;20404;-77
2023/09/12 05:58:17;;;;;;;34.97;15.20;;;17.50;99.90;;;;;;5000955;28;20542;-78
2023/09/12 06:00:43;;;;;;;34.85;16.73;;;17.60;99.90;;;;;;4982566;28;20496;-78
2023/09/12 06:03:09;;;;;;;32.60;15.50;;;17.60;99.90;;;;;;5001970;28;20117;-77
2023/09/12 06:05:35;;;;;;;34.10;16.73;;;17.60;99.90;;;;;;4984888;28;20038;-78
2023/09/12 06:08:00;;;;;;;31.77;15.35;;;17.60;99.90;;;;;;4985433;28;20034;-78
2023/09/12 06:10:26;;;;;;;27.90;14.18;;;17.60;99.90;;;;;;5001116;28;20049;-79
2023/09/12 06:12:51;;;;;;;30.08;14.20;;;17.70;99.90;;;;;;4986379;28;20042;-78
2023/09/12 06:15:17;;;;;;;30.17;14.38;;;17.70;99.90;;;;;;4983723;28;20092;-79
2023/09/12 06:17:43;;;;;;;30.27;12.82;;;17.70;99.90;;;;;;4987210;28;20052;-80
2023/09/12 06:20:09;;;;;;;30.92;15.38;;;17.70;99.90;;;;;;5001225;28;20601;-81
2023/09/12 06:22:35;;;;;;;30.95;14.65;;;17.70;99.90;;;;;;5003008;28;20041;-81
2023/09/12 06:25:01;;;;;;;27.67;14.02;;;17.70;99.90;;;;;;5003289;28;20045;-79
2023/09/12 06:27:26;;;;;;;30.90;14.70;;;17.70;99.90;;;;;;5002108;28;20488;-81
2023/09/12 06:29:52;;;;;;;31.00;15.68;;;17.80;99.90;;;;;;5001229;28;20049;-80
2023/09/12 06:32:18;;;;;;;33.75;14.57;;;17.80;99.90;;;;;;5001469;28;20061;-80
2023/09/12 06:34:44;;;;;;;34.17;16.63;;;17.80;99.90;;;;;;5000658;28;20038;-80
2023/09/12 06:37:13;;;;;;;28.85;13.85;;;17.90;99.90;;;;;;5001711;28;20057;-80
2023/09/12 06:39:39;;;;;;;32.00;13.98;;;17.90;99.90;;;;;;5002723;28;20069;-80
2023/09/12 06:42:05;;;;;;;34.58;15.60;;;18.00;99.90;;;;;;5002898;28;20042;-80
2023/09/12 06:44:30;;;;;;;33.55;16.63;;;18.00;99.90;;;;;;5002135;28;20038;-81
2023/09/12 06:46:56;;;;;;;38.15;16.67;;;18.00;99.90;;;;;;4984815;28;20037;-81
2023/09/12 06:49:22;;;;;;;36.42;16.15;;;18.00;99.90;;;;;;4985384;28;20096;-81
2023/09/12 06:51:47;;;;;;;35.42;16.13;;;18.00;99.90;;;;;;5002831;28;20290;-80
2023/09/12 06:54:13;;;;;;;37.95;17.13;;;18.10;99.90;;;;;;4984928;28;20080;-80
2023/09/12 06:56:41;;;;;;;40.08;17.95;;;18.10;99.90;;;;;;4969059;28;20049;-80
2023/09/12 06:59:07;;;;;;;46.25;18.02;;;18.10;99.90;;;;;;5004044;28;20042;-81
2023/09/12 07:01:33;;;;;;;45.50;17.50;;;18.10;99.90;;;;;;5001578;28;20099;-81
2023/09/12 07:03:58;;;;;;;43.65;17.73;;;18.20;99.90;;;;;;5002839;28;20058;-81
2023/09/12 07:06:24;;;;;;;46.05;18.35;;;18.20;99.90;;;;;;5001497;28;20096;-81
2023/09/12 07:08:51;;;;;;;43.15;18.40;;;18.20;99.90;;;;;;4984987;28;20475;-80
2023/09/12 07:11:16;;;;;;;49.33;19.77;;;18.30;99.90;;;;;;4984705;28;20126;-81
2023/09/12 07:13:42;;;;;;;53.17;18.23;;;18.30;99.90;;;;;;4981469;28;20133;-80
2023/09/12 07:16:11;;;;;;;49.80;18.38;;;18.40;99.90;;;;;;4981527;28;20489;-80
2023/09/12 07:18:37;;;;;;;49.63;20.38;;;18.40;99.90;;;;;;4968780;28;20130;-80
2023/09/12 07:21:05;;;;;;;52.65;22.67;;;18.50;99.90;;;;;;4985868;28;20564;-80
2023/09/12 07:23:32;;;;;;;57.65;21.83;;;18.60;99.90;;;;;;4983806;28;20050;-80
2023/09/12 07:25:58;;;;;;;59.20;22.38;;;18.60;99.90;;;;;;4985888;28;20136;-80
2023/09/12 07:28:24;;;;;;;59.95;21.45;;;18.70;99.90;;;;;;4986475;28;20113;-81
2023/09/12 07:30:50;;;;;;;65.75;23.77;;;18.80;99.90;;;;;;4978597;28;20093;-80
2023/09/12 07:33:15;;;;;;;60.83;21.00;;;18.80;99.90;;;;;;4980374;28;20050;-80
2023/09/12 07:35:41;;;;;;;60.58;20.30;;;18.90;99.90;;;;;;4981288;28;20049;-81
2023/09/12 07:38:07;;;;;;;54.03;21.55;;;19.00;99.90;;;;;;5006053;28;20371;-80
2023/09/12 07:40:32;;;;;;;63.15;22.42;;;19.00;99.90;;;;;;4975492;28;20081;-81
2023/09/12 07:42:58;;;;;;;53.28;19.67;;;19.00;99.90;;;;;;4972912;28;20776;-81
2023/09/12 07:45:24;;;;;;;56.42;20.52;;;19.00;99.90;;;;;;4981877;28;20053;-81
2023/09/12 07:47:50;;;;;;;65.07;21.85;;;19.10;99.90;;;;;;4979199;28;20093;-81
2023/09/12 07:50:15;;;;;;;56.22;20.42;;;19.20;99.90;;;;;;4969735;28;20138;-80
2023/09/12 07:52:41;;;;;;;53.72;19.73;;;19.20;99.90;;;;;;4980457;28;20121;-81
2023/09/12 07:55:07;;;;;;;57.53;21.60;;;19.20;99.90;;;;;;4968540;28;20145;-80
2023/09/12 07:57:34;;;;;;;71.13;21.40;;;19.30;99.90;;;;;;4981396;28;20096;-80
2023/09/12 08:00:00;;;;;;;54.58;20.55;;;19.30;99.90;;;;;;4967826;28;20122;-81
2023/09/12 08:02:25;;;;;;;55.60;20.00;;;19.30;99.90;;;;;;4979409;28;20121;-81
2023/09/12 08:04:51;;;;;;;55.80;20.85;;;19.40;99.90;;;;;;4985889;28;20501;-80
2023/09/12 08:07:17;;;;;;;53.60;19.67;;;19.40;99.90;;;;;;4978434;28;20056;-80
2023/09/12 08:09:52;;;;;;;40.50;17.05;;;19.40;99.90;;;;;;4985101;28;20048;-80
2023/09/12 08:12:19;;;;;;;54.38;19.63;;;19.40;99.90;;;;;;4985479;28;20042;-80
2023/09/12 08:14:45;;;;;;;44.50;18.27;;;19.50;99.90;;;;;;4983702;28;20059;-81
2023/09/12 08:17:12;;;;;;;50.08;18.88;;;19.50;99.90;;;;;;4997225;28;20050;-80
2023/09/12 08:19:37;;;;;;;44.03;16.15;;;19.50;99.90;;;;;;4998580;28;20042;-78
2023/09/12 08:22:03;;;;;;;37.80;16.50;;;19.50;99.90;;;;;;4994570;28;20042;-80
2023/09/12 08:24:29;;;;;;;44.35;16.67;;;19.50;99.90;;;;;;4981805;28;20386;-80
2023/09/12 08:26:54;;;;;;;31.90;15.52;;;19.60;99.90;;;;;;4983155;28;20121;-80
2023/09/12 08:29:20;;;;;;;37.03;15.27;;;19.50;99.90;;;;;;4982390;28;20050;-81
2023/09/12 08:31:46;;;;;;;37.85;14.57;;;19.60;99.90;;;;;;4984025;28;20552;-81
2023/09/12 08:34:13;;;;;;;34.13;14.85;;;19.60;99.90;;;;;;4983464;28;20429;-81
2023/09/12 08:36:39;;;;;;;37.22;15.05;;;19.70;99.90;;;;;;4984792;28;20038;-81
2023/09/12 08:39:08;;;;;;;35.38;14.98;;;19.80;99.90;;;;;;4982991;28;20088;-81
2023/09/12 08:41:33;;;;;;;34.30;15.70;;;19.90;99.90;;;;;;4967506;28;20046;-81
2023/09/12 08:44:01;;;;;;;34.90;14.38;;;20.00;99.90;;;;;;4982995;28;20065;-81
2023/09/12 08:46:27;;;;;;;35.60;14.48;;;20.10;99.90;;;;;;4982180;28;20101;-81
2023/09/12 08:48:55;;;;;;;34.03;13.77;;;20.20;99.90;;;;;;4966902;28;20369;-81
2023/09/12 08:51:23;;;;;;;27.48;14.50;;;20.30;99.90;;;;;;4984102;28;20038;-81
2023/09/12 08:53:50;;;;;;;31.80;13.70;;;20.30;99.90;;;;;;4982375;28;20178;-81
2023/09/12 08:56:16;;;;;;;26.70;14.20;;;20.30;99.90;;;;;;4983114;28;20511;-80
2023/09/12 08:58:43;;;;;;;30.75;12.85;;;20.30;99.90;;;;;;4983208;28;20090;-81
2023/09/12 09:01:13;;;;;;;31.48;12.75;;;20.40;99.90;;;;;;4982800;28;20465;-81
2023/09/12 09:03:41;;;;;;;27.95;13.27;;;20.40;99.90;;;;;;4992315;28;20234;-81
2023/09/12 09:06:08;;;;;;;26.83;12.77;;;20.40;99.90;;;;;;4986394;28;20042;-80
2023/09/12 09:08:34;;;;;;;23.90;11.52;;;20.40;99.90;;;;;;5010594;28;20038;-80
2023/09/12 09:11:03;;;;;;;27.13;12.02;;;20.40;99.90;;;;;;4984096;28;20053;-80
2023/09/12 09:13:29;;;;;;;23.42;11.15;;;20.40;99.90;;;;;;4984182;28;20263;-80
2023/09/12 09:16:15;;;;;;;26.05;11.45;;;20.40;99.90;;;;;;4985144;28;20046;-78
2023/09/12 09:19:13;;;;;;;22.80;10.90;;;20.40;99.90;;;;;;5009449;28;20447;-78
2023/09/12 09:21:40;;;;;;;23.17;11.80;;;20.40;99.90;;;;;;4975386;28;20131;-81
2023/09/12 09:24:11;;;;;;;22.60;12.10;;;20.40;99.90;;;;;;5003635;28;20446;-78
2023/09/12 09:26:45;;;;;;;16.50;9.65;;;20.50;99.90;;;;;;5002456;28;20412;-78
2023/09/12 09:29:17;;;;;;;20.25;11.60;;;20.50;99.90;;;;;;5002427;28;20586;-78
2023/09/12 09:31:49;;;;;;;22.65;10.35;;;20.60;99.90;;;;;;5000770;28;20050;-78
2023/09/12 09:34:17;;;;;;;16.15;8.05;;;20.70;99.90;;;;;;4985287;28;20084;-78
2023/09/12 09:36:52;;;;;;;15.15;8.75;;;20.80;99.90;;;;;;4969394;28;20053;-78
2023/09/12 09:39:20;;;;;;;18.75;9.98;;;20.80;99.90;;;;;;4968769;28;20052;-79
2023/09/12 09:41:51;;;;;;;18.88;10.85;;;20.90;99.90;;;;;;5001890;28;20047;-78
2023/09/12 09:44:17;;;;;;;19.10;9.45;;;20.90;99.90;;;;;;4985018;28;20421;-78
2023/09/12 09:46:44;;;;;;;17.98;10.27;;;20.90;99.90;;;;;;5001781;28;20045;-79
2023/09/12 09:49:19;;;;;;;19.65;9.43;;;21.00;99.90;;;;;;5002657;28;20137;-79
2023/09/12 09:51:45;;;;;;;22.27;10.90;;;21.00;99.90;;;;;;4984872;28;20045;-79
2023/09/12 09:54:14;;;;;;;17.83;9.50;;;21.10;99.90;;;;;;5002454;28;20543;-78
2023/09/12 09:56:52;;;;;;;16.08;10.25;;;21.20;99.90;;;;;;4985161;28;20038;-80
2023/09/12 09:59:21;;;;;;;17.80;9.40;;;21.20;99.90;;;;;;5001012;28;20393;-79
2023/09/12 10:01:49;;;;;;;17.48;10.07;;;21.20;99.90;;;;;;4984270;28;20048;-79
2023/09/12 10:04:15;;;;;;;15.50;8.43;;;21.30;99.90;;;;;;5002866;28;20089;-79
2023/09/12 10:06:44;;;;;;;19.55;9.15;;;21.20;99.90;;;;;;5002541;28;20084;-79
2023/09/12 10:09:13;;;;;;;12.82;7.78;;;21.30;99.90;;;;;;5002022;28;20077;-78
2023/09/12 10:11:40;;;;;;;18.40;9.20;;;21.20;99.90;;;;;;5002333;28;20056;-81
2023/09/12 10:14:07;;;;;;;17.58;8.48;;;21.30;99.90;;;;;;5003282;28;20137;-77
2023/09/12 10:16:36;;;;;;;16.55;8.00;;;21.20;99.90;;;;;;4983939;28;20053;-77
2023/09/12 10:19:24;;;;;;;16.38;8.68;;;21.30;99.90;;;;;;4985204;28;20547;-77
2023/09/12 10:21:56;;;;;;;17.75;7.28;;;21.30;99.90;;;;;;4974935;28;20046;-75
2023/09/12 10:24:22;;;;;;;20.02;9.05;;;21.30;99.90;;;;;;5010733;28;20033;-78
2023/09/12 10:26:50;;;;;;;19.17;8.93;;;21.30;99.90;;;;;;4972258;28;20389;-77
2023/09/12 10:29:16;;;;;;;13.50;8.27;;;21.30;99.90;;;;;;4984510;28;20033;-77
2023/09/12 10:31:42;;;;;;;16.38;8.43;;;21.30;99.90;;;;;;4983763;28;20069;-78
2023/09/12 10:34:12;;;;;;;17.50;8.82;;;21.30;99.90;;;;;;4985364;28;20052;-78
2023/09/12 10:36:40;;;;;;;17.60;8.98;;;21.40;99.90;;;;;;4980680;28;20054;-78
2023/09/12 10:39:07;;;;;;;16.95;8.40;;;21.40;99.90;;;;;;5002945;28;20038;-77
2023/09/12 10:41:37;;;;;;;17.65;8.27;;;21.40;99.90;;;;;;5002835;28;20053;-78
2023/09/12 10:44:09;;;;;;;18.70;8.77;;;21.40;99.90;;;;;;5002781;28;20139;-78
2023/09/12 10:46:38;;;;;;;18.38;8.82;;;21.40;99.90;;;;;;5002450;28;20034;-77
2023/09/12 10:49:10;;;;;;;14.57;8.57;;;21.40;99.90;;;;;;4980372;28;20050;-75
2023/09/12 10:51:55;;;;;;;16.08;8.45;;;21.50;99.90;;;;;;4977098;28;20410;-75
2023/09/12 10:54:35;;;;;;;18.70;8.30;;;21.50;99.90;;;;;;5019644;28;20081;-78
2023/09/12 10:57:04;;;;;;;15.02;8.57;;;21.50;99.90;;;;;;5004040;28;20077;-77
2023/09/12 10:59:35;;;;;;;15.13;7.72;;;21.60;99.90;;;;;;4984892;28;20125;-76
2023/09/12 11:02:29;;;;;;;13.82;7.38;;;21.60;99.90;;;;;;5002962;28;20038;-76
2023/09/12 11:04:56;;;;;;;15.02;7.13;;;21.60;99.90;;;;;;5003073;28;20053;-76
2023/09/12 11:07:36;;;;;;;12.70;7.25;;;21.60;99.90;;;;;;5003379;28;20391;-76
2023/09/12 11:10:15;;;;;;;11.65;7.47;;;21.60;99.90;;;;;;4987442;28;20428;-76
2023/09/12 11:12:41;;;;;;;12.55;7.18;;;21.60;99.90;;;;;;5003937;28;20581;-77
2023/09/12 11:15:08;;;;;;;13.07;6.65;;;21.50;99.90;;;;;;5004372;28;20379;-76
2023/09/12 11:17:41;;;;;;;10.75;6.18;;;21.50;99.90;;;;;;4972039;28;20065;-76
2023/09/12 11:20:10;;;;;;;12.88;7.15;;;21.40;99.90;;;;;;5004605;28;20042;-76
2023/09/12 11:22:39;;;;;;;10.25;6.30;;;21.50;99.90;;;;;;4988899;28;20038;-76
2023/09/12 11:25:26;;;;;;;11.13;7.40;;;21.40;99.90;;;;;;5012122;28;20492;-75
2023/09/12 11:27:51;;;;;;;10.98;7.50;;;21.40;99.90;;;;;;5010046;28;20054;-75
2023/09/12 11:30:18;;;;;;;12.73;6.20;;;21.40;99.90;;;;;;4984217;28;20042;-76
2023/09/12 11:32:47;;;;;;;11.15;7.10;;;21.40;99.90;;;;;;5004156;28;20120;-76
2023/09/12 11:35:14;;;;;;;10.80;6.65;;;21.40;99.90;;;;;;5003012;28;20500;-76
2023/09/12 11:37:47;;;;;;;10.43;6.13;;;21.40;99.90;;;;;;4987317;28;20046;-76
2023/09/12 11:40:13;;;;;;;9.57;6.53;;;21.40;99.90;;;;;;4975367;28;20046;-77
2023/09/12 11:42:42;;;;;;;13.20;6.53;;;21.40;99.90;;;;;;5004617;28;20100;-77
2023/09/12 11:45:10;;;;;;;8.57;5.63;;;21.40;99.90;;;;;;5004209;28;20050;-76
2023/09/12 11:47:40;;;;;;;11.02;6.78;;;21.50;99.90;;;;;;4988595;28;20697;-75
2023/09/12 11:50:06;;;;;;;9.68;6.50;;;21.50;99.90;;;;;;5004777;28;20523;-75
2023/09/12 11:52:37;;;;;;;9.10;6.35;;;21.60;99.90;;;;;;4987823;28;20528;-76
2023/09/12 11:55:03;;;;;;;7.97;5.50;;;21.60;99.90;;;;;;5003030;28;20061;-76
2023/09/12 11:57:29;;;;;;;6.47;4.88;;;21.60;99.90;;;;;;4986969;28;20037;-76
2023/09/12 11:59:56;;;;;;;10.30;5.28;;;21.60;99.90;;;;;;4985653;28;20048;-76
2023/09/12 12:02:23;;;;;;;6.70;5.13;;;21.70;99.90;;;;;;5003927;28;20468;-76
2023/09/12 12:04:50;;;;;;;11.52;5.72;;;21.70;99.90;;;;;;5002836;28;20048;-76
2023/09/12 12:07:15;;;;;;;6.50;4.22;;;21.70;99.90;;;;;;5002814;28;20379;-76
2023/09/12 12:09:41;;;;;;;5.22;4.07;;;21.70;99.90;;;;;;5004581;28;20452;-76
2023/09/12 12:12:12;;;;;;;6.80;3.90;;;21.70;99.90;;;;;;5004234;28;20516;-76
2023/09/12 12:14:39;;;;;;;5.50;4.00;;;21.70;99.90;;;;;;5004085;28;20054;-76
2023/09/12 12:17:12;;;;;;;4.85;3.63;;;21.70;99.90;;;;;;5007977;28;20076;-76
2023/09/12 12:19:38;;;;;;;5.75;3.65;;;21.70;99.90;;;;;;4986572;28;20632;-77
2023/09/12 12:22:05;;;;;;;3.75;3.05;;;21.70;99.90;;;;;;5004804;28;20080;-77
2023/09/12 12:24:47;;;;;;;6.82;3.63;;;21.70;99.90;;;;;;5004075;28;20038;-76
2023/09/12 12:27:16;;;;;;;4.75;3.45;;;21.70;99.90;;;;;;5004547;28;20045;-76
2023/09/12 12:29:43;;;;;;;6.35;3.92;;;21.70;99.90;;;;;;4995145;28;20056;-77
2023/09/12 12:32:10;;;;;;;5.95;3.25;;;21.70;99.90;;;;;;4986572;28;20500;-77